sensor_id;sensor_type;location;lat;lon;timestamp;pressure;altitude;pressure_sealevel;temperature;humidity
27294;BME280;14785;52.556;13.430;2023-07-22T00:02:02;100277.28;;;17.34;100.00
27294;BME280;14785;52.556;13.430;2023-07-22T00:04:28;100276.06;;;17.30;100.00
27294;BME280;14785;52.556;13.430;2023-07-22T00:06:54;100268.19;;;17.29;100.00
27294;BME280;14785;52.556;13.430;2023-07-22T00:09:19;100273.38;;;17.30;100.00
27294;BME280;14785;52.556;13.430;2023-07-22T00:11:45;100272.75;;;16.76;100.00
27294;BME280;14785;52.556;13.430;2023-07-22T00:14:10;100277.47;;;17.26;100.00
27294;BME280;14785;52.556;13.430;2023-07-22T00:16:35;100272.31;;;17.05;100.00
27294;BME280;14785;52.556;13.430;2023-07-22T00:19:01;100279.91;;;16.49;100.00
27294;BME280;14785;52.556;13.430;2023-07-22T00:21:27;100277.69;;;16.66;100.00
27294;BME280;14785;52.556;13.430;2023-07-22T00:23:54;100275.72;;;16.21;100.00
27294;BME280;14785;52.556;13.430;2023-07-22T00:26:19;100274.81;;;16.61;100.00
27294;BME280;14785;52.556;13.430;2023-07-22T00:28:45;100280.06;;;16.35;100.00
27294;BME280;14785;52.556;13.430;2023-07-22T00:31:10;100284.44;;;16.36;100.00
27294;BME280;14785;52.556;13.430;2023-07-22T00:33:35;100284.63;;;16.41;100.00
27294;BME280;14785;52.556;13.430;2023-07-22T00:36:01;100280.94;;;16.42;100.00
27294;BME280;14785;52.556;13.430;2023-07-22T00:38:26;100278.94;;;16.70;100.00
27294;BME280;14785;52.556;13.430;2023-07-22T00:40:52;100275.63;;;17.20;100.00
27294;BME280;14785;52.556;13.430;2023-07-22T00:43:18;100276.84;;;16.46;100.00
27294;BME280;14785;52.556;13.430;2023-07-22T00:45:44;100283.00;;;16.40;100.00
27294;BME280;14785;52.556;13.430;2023-07-22T00:48:09;100279.88;;;16.30;100.00
27294;BME280;14785;52.556;13.430;2023-07-22T00:50:36;100283.53;;;16.16;100.00
27294;BME280;14785;52.556;13.430;2023-07-22T00:53:01;100293.59;;;16.01;100.00
27294;BME280;14785;52.556;13.430;2023-07-22T00:55:27;100290.94;;;16.07;100.00
27294;BME280;14785;52.556;13.430;2023-07-22T00:57:54;100286.66;;;16.19;100.00
27294;BME280;14785;52.556;13.430;2023-07-22T01:00:20;100293.16;;;15.97;100.00
27294;BME280;14785;52.556;13.430;2023-07-22T01:02:45;100289.19;;;15.87;100.00
27294;BME280;14785;52.556;13.430;2023-07-22T01:05:11;100291.50;;;15.96;100.00
27294;BME280;14785;52.556;13.430;2023-07-22T01:07:37;100294.34;;;15.88;100.00
27294;BME280;14785;52.556;13.430;2023-07-22T01:10:04;100299.31;;;15.85;100.00
27294;BME280;14785;52.556;13.430;2023-07-22T01:12:31;100305.81;;;16.10;100.00
27294;BME280;14785;52.556;13.430;2023-07-22T01:14:56;100299.41;;;16.11;100.00
27294;BME280;14785;52.556;13.430;2023-07-22T01:17:22;100298.94;;;16.01;100.00
27294;BME280;14785;52.556;13.430;2023-07-22T01:19:48;100291.75;;;16.01;100.00
27294;BME280;14785;52.556;13.430;2023-07-22T01:22:13;100291.44;;;15.83;100.00
27294;BME280;14785;52.556;13.430;2023-07-22T01:24:40;100287.47;;;16.13;100.00
27294;BME280;14785;52.556;13.430;2023-07-22T01:27:07;100290.66;;;15.96;100.00
27294;BME280;14785;52.556;13.430;2023-07-22T01:29:35;100301.09;;;15.71;100.00
27294;BME280;14785;52.556;13.430;2023-07-22T01:32:01;100310.13;;;15.70;100.00
27294;BME280;14785;52.556;13.430;2023-07-22T01:34:27;100291.66;;;15.82;100.00
27294;BME280;14785;52.556;13.430;2023-07-22T01:36:52;100304.25;;;15.88;100.00
27294;BME280;14785;52.556;13.430;2023-07-22T01:39:19;100297.16;;;15.74;100.00
27294;BME280;14785;52.556;13.430;2023-07-22T01:41:45;100310.78;;;15.72;100.00
27294;BME280;14785;52.556;13.430;2023-07-22T01:44:10;100319.75;;;15.92;100.00
27294;BME280;14785;52.556;13.430;2023-07-22T01:46:38;100312.03;;;15.76;100.00
27294;BME280;14785;52.556;13.430;2023-07-22T01:49:05;100295.97;;;15.83;100.00
27294;BME280;14785;52.556;13.430;2023-07-22T01:51:32;100309.88;;;15.59;100.00
27294;BME280;14785;52.556;13.430;2023-07-22T01:53:57;100301.19;;;15.91;100.00
27294;BME280;14785;52.556;13.430;2023-07-22T01:56:23;100298.69;;;15.55;100.00
27294;BME280;14785;52.556;13.430;2023-07-22T01:58:49;100300.41;;;15.63;100.00
27294;BME280;14785;52.556;13.430;2023-07-22T02:01:14;100307.03;;;15.67;100.00
27294;BME280;14785;52.556;13.430;2023-07-22T02:03:41;100322.81;;;15.49;100.00
27294;BME280;14785;52.556;13.430;2023-07-22T02:06:07;100326.34;;;15.56;100.00
27294;BME280;14785;52.556;13.430;2023-07-22T02:08:33;100332.09;;;15.53;100.00
27294;BME280;14785;52.556;13.430;2023-07-22T02:11:01;100331.13;;;15.60;100.00
27294;BME280;14785;52.556;13.430;2023-07-22T02:13:29;100322.94;;;15.41;100.00
27294;BME280;14785;52.556;13.430;2023-07-22T02:15:54;100333.91;;;15.46;100.00
27294;BME280;14785;52.556;13.430;2023-07-22T02:18:20;100343.16;;;15.43;100.00
27294;BME280;14785;52.556;13.430;2023-07-22T02:20:45;100351.00;;;15.45;100.00
27294;BME280;14785;52.556;13.430;2023-07-22T02:23:11;100340.59;;;15.35;100.00
27294;BME280;14785;52.556;13.430;2023-07-22T02:25:36;100350.34;;;15.64;100.00
27294;BME280;14785;52.556;13.430;2023-07-22T02:28:02;100348.19;;;15.53;100.00
27294;BME280;14785;52.556;13.430;2023-07-22T02:30:27;100348.09;;;15.40;100.00
27294;BME280;14785;52.556;13.430;2023-07-22T02:32:52;100361.31;;;15.48;100.00
27294;BME280;14785;52.556;13.430;2023-07-22T02:35:18;100371.91;;;15.34;100.00
27294;BME280;14785;52.556;13.430;2023-07-22T02:37:43;100362.53;;;15.17;100.00
27294;BME280;14785;52.556;13.430;2023-07-22T02:40:09;100366.72;;;15.26;100.00
27294;BME280;14785;52.556;13.430;2023-07-22T02:42:37;100366.34;;;15.08;100.00
27294;BME280;14785;52.556;13.430;2023-07-22T02:45:03;100379.97;;;15.13;100.00
27294;BME280;14785;52.556;13.430;2023-07-22T02:47:33;100364.53;;;15.37;100.00
27294;BME280;14785;52.556;13.430;2023-07-22T02:50:00;100379.97;;;14.92;100.00
27294;BME280;14785;52.556;13.430;2023-07-22T02:52:25;100376.69;;;15.11;100.00
27294;BME280;14785;52.556;13.430;2023-07-22T02:57:36;100388.66;;;15.15;100.00
27294;BME280;14785;52.556;13.430;2023-07-22T03:00:03;100389.16;;;14.83;100.00
27294;BME280;14785;52.556;13.430;2023-07-22T03:02:37;100391.84;;;15.04;100.00
27294;BME280;14785;52.556;13.430;2023-07-22T03:05:04;100393.38;;;14.92;100.00
27294;BME280;14785;52.556;13.430;2023-07-22T03:07:34;100391.84;;;15.04;100.00
27294;BME280;14785;52.556;13.430;2023-07-22T03:09:59;100393.72;;;14.83;100.00
27294;BME280;14785;52.556;13.430;2023-07-22T03:12:24;100383.78;;;14.98;100.00
27294;BME280;14785;52.556;13.430;2023-07-22T03:14:50;100391.22;;;14.81;100.00
27294;BME280;14785;52.556;13.430;2023-07-22T03:17:18;100396.78;;;15.22;100.00
27294;BME280;14785;52.556;13.430;2023-07-22T03:19:43;100399.25;;;14.81;100.00
27294;BME280;14785;52.556;13.430;2023-07-22T03:22:09;100393.31;;;14.86;100.00
27294;BME280;14785;52.556;13.430;2023-07-22T03:24:35;100398.88;;;15.05;100.00
27294;BME280;14785;52.556;13.430;2023-07-22T03:27:00;100400.25;;;14.80;100.00
27294;BME280;14785;52.556;13.430;2023-07-22T03:29:26;100407.69;;;14.99;100.00
27294;BME280;14785;52.556;13.430;2023-07-22T03:31:52;100408.75;;;15.05;100.00
27294;BME280;14785;52.556;13.430;2023-07-22T03:34:18;100424.25;;;15.09;100.00
27294;BME280;14785;52.556;13.430;2023-07-22T03:36:43;100404.34;;;15.18;100.00
27294;BME280;14785;52.556;13.430;2023-07-22T03:39:09;100416.53;;;15.21;100.00
27294;BME280;14785;52.556;13.430;2023-07-22T03:41:34;100421.97;;;15.06;100.00
27294;BME280;14785;52.556;13.430;2023-07-22T03:43:59;100407.16;;;15.10;100.00
27294;BME280;14785;52.556;13.430;2023-07-22T03:46:25;100419.44;;;15.41;100.00
27294;BME280;14785;52.556;13.430;2023-07-22T03:48:50;100428.22;;;15.13;100.00
27294;BME280;14785;52.556;13.430;2023-07-22T03:51:15;100421.19;;;15.12;100.00
27294;BME280;14785;52.556;13.430;2023-07-22T03:53:41;100427.44;;;14.98;100.00
27294;BME280;14785;52.556;13.430;2023-07-22T03:56:06;100423.13;;;15.40;100.00
27294;BME280;14785;52.556;13.430;2023-07-22T03:58:31;100423.41;;;15.30;100.00
27294;BME280;14785;52.556;13.430;2023-07-22T04:00:57;100426.06;;;15.23;100.00
27294;BME280;14785;52.556;13.430;2023-07-22T04:03:22;100423.59;;;15.07;100.00
27294;BME280;14785;52.556;13.430;2023-07-22T04:05:57;100419.34;;;14.92;100.00
27294;BME280;14785;52.556;13.430;2023-07-22T04:08:23;100424.25;;;15.09;100.00
27294;BME280;14785;52.556;13.430;2023-07-22T04:10:55;100428.75;;;15.23;100.00
27294;BME280;14785;52.556;13.430;2023-07-22T04:13:21;100422.09;;;15.19;100.00
27294;BME280;14785;52.556;13.430;2023-07-22T04:15:47;100419.97;;;15.15;100.00
27294;BME280;14785;52.556;13.430;2023-07-22T04:18:15;100426.44;;;14.99;100.00
27294;BME280;14785;52.556;13.430;2023-07-22T04:20:40;100431.03;;;15.05;100.00
27294;BME280;14785;52.556;13.430;2023-07-22T04:23:06;100429.69;;;14.95;100.00
27294;BME280;14785;52.556;13.430;2023-07-22T04:25:31;100431.72;;;15.14;100.00
27294;BME280;14785;52.556;13.430;2023-07-22T04:27:57;100434.47;;;14.99;100.00
27294;BME280;14785;52.556;13.430;2023-07-22T04:30:22;100441.88;;;15.18;100.00
27294;BME280;14785;52.556;13.430;2023-07-22T04:32:49;100440.34;;;15.30;100.00
27294;BME280;14785;52.556;13.430;2023-07-22T04:35:16;100433.81;;;14.97;100.00
27294;BME280;14785;52.556;13.430;2023-07-22T04:37:43;100453.22;;;14.99;100.00
27294;BME280;14785;52.556;13.430;2023-07-22T04:40:10;100435.63;;;15.11;100.00
27294;BME280;14785;52.556;13.430;2023-07-22T04:42:40;100432.28;;;15.09;100.00
27294;BME280;14785;52.556;13.430;2023-07-22T04:45:07;100434.66;;;15.19;100.00
27294;BME280;14785;52.556;13.430;2023-07-22T04:47:33;100442.13;;;15.45;100.00
27294;BME280;14785;52.556;13.430;2023-07-22T04:49:59;100432.78;;;15.19;100.00
27294;BME280;14785;52.556;13.430;2023-07-22T04:52:24;100436.19;;;15.28;100.00
27294;BME280;14785;52.556;13.430;2023-07-22T04:54:49;100440.59;;;15.57;100.00
27294;BME280;14785;52.556;13.430;2023-07-22T04:57:15;100443.81;;;15.46;100.00
27294;BME280;14785;52.556;13.430;2023-07-22T04:59:42;100435.28;;;15.63;100.00
27294;BME280;14785;52.556;13.430;2023-07-22T05:02:07;100440.34;;;15.52;100.00
27294;BME280;14785;52.556;13.430;2023-07-22T05:04:33;100441.16;;;15.52;100.00
27294;BME280;14785;52.556;13.430;2023-07-22T05:06:58;100449.56;;;15.43;100.00
27294;BME280;14785;52.556;13.430;2023-07-22T05:09:24;100445.31;;;15.82;100.00
27294;BME280;14785;52.556;13.430;2023-07-22T05:11:49;100444.56;;;15.61;100.00
27294;BME280;14785;52.556;13.430;2023-07-22T05:14:14;100445.78;;;15.86;100.00
27294;BME280;14785;52.556;13.430;2023-07-22T05:16:40;100451.00;;;15.94;100.00
27294;BME280;14785;52.556;13.430;2023-07-22T05:19:05;100453.47;;;15.68;100.00
27294;BME280;14785;52.556;13.430;2023-07-22T05:21:33;100443.38;;;15.70;100.00
27294;BME280;14785;52.556;13.430;2023-07-22T05:23:58;100461.28;;;15.42;100.00
27294;BME280;14785;52.556;13.430;2023-07-22T05:26:24;100458.31;;;15.79;100.00
27294;BME280;14785;52.556;13.430;2023-07-22T05:28:49;100474.81;;;15.55;100.00
27294;BME280;14785;52.556;13.430;2023-07-22T05:31:16;100464.03;;;15.97;100.00
27294;BME280;14785;52.556;13.430;2023-07-22T05:33:41;100468.31;;;15.64;100.00
27294;BME280;14785;52.556;13.430;2023-07-22T05:36:07;100475.69;;;15.62;100.00
27294;BME280;14785;52.556;13.430;2023-07-22T05:38:32;100463.09;;;15.83;100.00
27294;BME280;14785;52.556;13.430;2023-07-22T05:40:58;100469.34;;;16.18;100.00
27294;BME280;14785;52.556;13.430;2023-07-22T05:43:23;100473.97;;;16.03;100.00
27294;BME280;14785;52.556;13.430;2023-07-22T05:45:49;100475.50;;;15.63;100.00
27294;BME280;14785;52.556;13.430;2023-07-22T05:48:14;100485.66;;;15.68;100.00
27294;BME280;14785;52.556;13.430;2023-07-22T05:50:40;100476.56;;;15.69;100.00
27294;BME280;14785;52.556;13.430;2023-07-22T05:53:06;100486.75;;;16.01;100.00
27294;BME280;14785;52.556;13.430;2023-07-22T05:55:31;100486.81;;;16.07;100.00
27294;BME280;14785;52.556;13.430;2023-07-22T05:57:56;100487.53;;;15.95;100.00
27294;BME280;14785;52.556;13.430;2023-07-22T06:00:22;100490.41;;;15.93;100.00
27294;BME280;14785;52.556;13.430;2023-07-22T06:02:48;100491.72;;;16.04;100.00
27294;BME280;14785;52.556;13.430;2023-07-22T06:05:13;100488.53;;;16.21;100.00
27294;BME280;14785;52.556;13.430;2023-07-22T06:07:39;100483.94;;;16.09;100.00
27294;BME280;14785;52.556;13.430;2023-07-22T06:10:05;100477.97;;;15.86;100.00
27294;BME280;14785;52.556;13.430;2023-07-22T06:12:30;100486.03;;;15.65;100.00
27294;BME280;14785;52.556;13.430;2023-07-22T06:14:56;100475.41;;;15.78;100.00
27294;BME280;14785;52.556;13.430;2023-07-22T06:17:21;100489.00;;;15.76;100.00
27294;BME280;14785;52.556;13.430;2023-07-22T06:19:47;100488.38;;;15.95;100.00
27294;BME280;14785;52.556;13.430;2023-07-22T06:22:12;100491.72;;;16.04;100.00
27294;BME280;14785;52.556;13.430;2023-07-22T06:24:38;100511.16;;;16.06;100.00
27294;BME280;14785;52.556;13.430;2023-07-22T06:27:04;100495.25;;;16.04;100.00
27294;BME280;14785;52.556;13.430;2023-07-22T06:29:29;100497.50;;;16.35;100.00
27294;BME280;14785;52.556;13.430;2023-07-22T06:31:54;100515.50;;;16.41;100.00
27294;BME280;14785;52.556;13.430;2023-07-22T06:34:20;100504.00;;;16.47;100.00
27294;BME280;14785;52.556;13.430;2023-07-22T06:36:45;100494.09;;;16.47;100.00
27294;BME280;14785;52.556;13.430;2023-07-22T06:39:11;100495.06;;;16.74;100.00
27294;BME280;14785;52.556;13.430;2023-07-22T06:41:36;100505.06;;;16.25;100.00
27294;BME280;14785;52.556;13.430;2023-07-22T06:44:02;100492.66;;;16.51;100.00
27294;BME280;14785;52.556;13.430;2023-07-22T06:46:27;100505.88;;;16.53;100.00
27294;BME280;14785;52.556;13.430;2023-07-22T06:48:53;100496.66;;;17.09;100.00
27294;BME280;14785;52.556;13.430;2023-07-22T06:51:18;100488.72;;;16.88;100.00
27294;BME280;14785;52.556;13.430;2023-07-22T06:53:44;100502.59;;;16.98;100.00
27294;BME280;14785;52.556;13.430;2023-07-22T06:56:09;100497.97;;;16.79;100.00
27294;BME280;14785;52.556;13.430;2023-07-22T06:58:34;100502.59;;;16.98;100.00
27294;BME280;14785;52.556;13.430;2023-07-22T07:01:00;100495.84;;;16.68;100.00
27294;BME280;14785;52.556;13.430;2023-07-22T07:03:25;100490.94;;;16.78;100.00
27294;BME280;14785;52.556;13.430;2023-07-22T07:05:53;100509.94;;;16.76;100.00
27294;BME280;14785;52.556;13.430;2023-07-22T07:08:18;100501.34;;;17.00;100.00
27294;BME280;14785;52.556;13.430;2023-07-22T07:10:44;100484.94;;;17.36;100.00
27294;BME280;14785;52.556;13.430;2023-07-22T07:13:09;100510.31;;;17.21;100.00
27294;BME280;14785;52.556;13.430;2023-07-22T07:15:35;100508.34;;;17.68;100.00
27294;BME280;14785;52.556;13.430;2023-07-22T07:18:00;100490.97;;;17.45;100.00
27294;BME280;14785;52.556;13.430;2023-07-22T07:20:26;100501.34;;;17.67;100.00
27294;BME280;14785;52.556;13.430;2023-07-22T07:22:51;100497.31;;;17.37;100.00
27294;BME280;14785;52.556;13.430;2023-07-22T07:25:16;100504.41;;;18.16;100.00
27294;BME280;14785;52.556;13.430;2023-07-22T07:27:42;100501.94;;;18.08;100.00
27294;BME280;14785;52.556;13.430;2023-07-22T07:30:08;100499.44;;;18.13;100.00
27294;BME280;14785;52.556;13.430;2023-07-22T07:32:34;100506.47;;;18.34;100.00
27294;BME280;14785;52.556;13.430;2023-07-22T07:35:00;100515.81;;;17.92;100.00
27294;BME280;14785;52.556;13.430;2023-07-22T07:37:25;100498.00;;;17.98;100.00
27294;BME280;14785;52.556;13.430;2023-07-22T07:39:51;100531.75;;;17.61;100.00
27294;BME280;14785;52.556;13.430;2023-07-22T07:42:16;100525.13;;;17.77;100.00
27294;BME280;14785;52.556;13.430;2023-07-22T07:44:42;100522.25;;;17.91;100.00
27294;BME280;14785;52.556;13.430;2023-07-22T07:47:07;100527.00;;;18.09;100.00
27294;BME280;14785;52.556;13.430;2023-07-22T07:49:33;100523.91;;;17.79;100.00
27294;BME280;14785;52.556;13.430;2023-07-22T07:51:59;100537.94;;;17.68;100.00
27294;BME280;14785;52.556;13.430;2023-07-22T07:54:24;100532.56;;;17.81;100.00
27294;BME280;14785;52.556;13.430;2023-07-22T07:56:50;100523.91;;;17.99;100.00
27294;BME280;14785;52.556;13.430;2023-07-22T07:59:15;100525.34;;;17.88;100.00
27294;BME280;14785;52.556;13.430;2023-07-22T08:01:41;100535.25;;;17.68;100.00
27294;BME280;14785;52.556;13.430;2023-07-22T08:04:08;100541.00;;;17.46;100.00
27294;BME280;14785;52.556;13.430;2023-07-22T08:06:34;100536.09;;;18.01;100.00
27294;BME280;14785;52.556;13.430;2023-07-22T08:08:59;100533.63;;;17.87;100.00
27294;BME280;14785;52.556;13.430;2023-07-22T08:11:24;100550.81;;;17.79;100.00
27294;BME280;14785;52.556;13.430;2023-07-22T08:13:50;100532.38;;;17.83;100.00
27294;BME280;14785;52.556;13.430;2023-07-22T08:16:17;100533.84;;;17.98;100.00
27294;BME280;14785;52.556;13.430;2023-07-22T08:18:43;100543.78;;;18.04;100.00
27294;BME280;14785;52.556;13.430;2023-07-22T08:21:09;100536.75;;;18.42;100.00
27294;BME280;14785;52.556;13.430;2023-07-22T08:23:35;100579.34;;;17.74;100.00
27294;BME280;14785;52.556;13.430;2023-07-22T08:26:02;100547.47;;;18.29;100.00
27294;BME280;14785;52.556;13.430;2023-07-22T08:28:29;100544.59;;;18.05;100.00
27294;BME280;14785;52.556;13.430;2023-07-22T08:30:55;100546.88;;;18.08;100.00
27294;BME280;14785;52.556;13.430;2023-07-22T08:33:22;100587.25;;;18.27;100.00
27294;BME280;14785;52.556;13.430;2023-07-22T08:35:48;100557.84;;;18.19;100.00
27294;BME280;14785;52.556;13.430;2023-07-22T08:38:14;100549.50;;;18.66;100.00
27294;BME280;14785;52.556;13.430;2023-07-22T08:40:40;100563.41;;;18.63;100.00
27294;BME280;14785;52.556;13.430;2023-07-22T08:43:08;100555.31;;;18.63;100.00
27294;BME280;14785;52.556;13.430;2023-07-22T08:45:38;100570.25;;;18.59;100.00
27294;BME280;14785;52.556;13.430;2023-07-22T08:48:09;100567.38;;;18.28;100.00
27294;BME280;14785;52.556;13.430;2023-07-22T08:50:56;100576.28;;;18.22;100.00
27294;BME280;14785;52.556;13.430;2023-07-22T08:53:24;100569.44;;;18.26;100.00
27294;BME280;14785;52.556;13.430;2023-07-22T08:55:50;100563.34;;;18.89;100.00
27294;BME280;14785;52.556;13.430;2023-07-22T08:58:16;100599.66;;;18.22;100.00
27294;BME280;14785;52.556;13.430;2023-07-22T09:00:42;100586.41;;;18.59;100.00
27294;BME280;14785;52.556;13.430;2023-07-22T09:03:09;100572.75;;;18.67;100.00
27294;BME280;14785;52.556;13.430;2023-07-22T09:05:35;100575.22;;;18.56;100.00
27294;BME280;14785;52.556;13.430;2023-07-22T09:08:03;100578.97;;;18.61;100.00
27294;BME280;14785;52.556;13.430;2023-07-22T09:10:29;100571.66;;;18.81;100.00
27294;BME280;14785;52.556;13.430;2023-07-22T09:12:56;100574.69;;;19.05;100.00
27294;BME280;14785;52.556;13.430;2023-07-22T09:15:21;100567.25;;;19.51;100.00
27294;BME280;14785;52.556;13.430;2023-07-22T09:17:49;100566.91;;;19.72;100.00
27294;BME280;14785;52.556;13.430;2023-07-22T09:20:15;100563.34;;;19.40;100.00
27294;BME280;14785;52.556;13.430;2023-07-22T09:22:48;100589.69;;;18.74;100.00
27294;BME280;14785;52.556;13.430;2023-07-22T09:25:22;100575.22;;;18.69;100.00
27294;BME280;14785;52.556;13.430;2023-07-22T09:27:51;100578.28;;;18.79;100.00
27294;BME280;14785;52.556;13.430;2023-07-22T09:32:55;100572.91;;;18.72;100.00
27294;BME280;14785;52.556;13.430;2023-07-22T09:35:21;100580.09;;;18.98;100.00
27294;BME280;14785;52.556;13.430;2023-07-22T09:37:47;100556.97;;;19.66;100.00
27294;BME280;14785;52.556;13.430;2023-07-22T09:40:26;100581.72;;;19.12;100.00
27294;BME280;14785;52.556;13.430;2023-07-22T09:42:54;100554.03;;;19.74;100.00
27294;BME280;14785;52.556;13.430;2023-07-22T09:45:24;100549.06;;;19.40;100.00
27294;BME280;14785;52.556;13.430;2023-07-22T09:47:52;100551.25;;;19.56;100.00
27294;BME280;14785;52.556;13.430;2023-07-22T09:50:20;100563.56;;;20.32;100.00
27294;BME280;14785;52.556;13.430;2023-07-22T09:52:51;100578.31;;;20.54;100.00
27294;BME280;14785;52.556;13.430;2023-07-22T09:55:22;100562.47;;;19.84;100.00
27294;BME280;14785;52.556;13.430;2023-07-22T09:58:00;100587.88;;;19.70;100.00
27294;BME280;14785;52.556;13.430;2023-07-22T10:00:34;100552.31;;;19.79;100.00
27294;BME280;14785;52.556;13.430;2023-07-22T10:03:01;100579.72;;;19.45;100.00
27294;BME280;14785;52.556;13.430;2023-07-22T10:05:28;100575.69;;;19.61;100.00
27294;BME280;14785;52.556;13.430;2023-07-22T10:07:57;100596.41;;;19.23;100.00
27294;BME280;14785;52.556;13.430;2023-07-22T10:10:31;100576.59;;;19.48;100.00
27294;BME280;14785;52.556;13.430;2023-07-22T10:12:57;100581.94;;;19.55;100.00
27294;BME280;14785;52.556;13.430;2023-07-22T10:15:25;100568.47;;;19.86;100.00
27294;BME280;14785;52.556;13.430;2023-07-22T10:17:53;100569.31;;;20.11;100.00
27294;BME280;14785;52.556;13.430;2023-07-22T10:20:20;100567.69;;;20.77;100.00
27294;BME280;14785;52.556;13.430;2023-07-22T10:22:46;100612.69;;;19.85;100.00
27294;BME280;14785;52.556;13.430;2023-07-22T10:25:14;100581.97;;;20.10;100.00
27294;BME280;14785;52.556;13.430;2023-07-22T10:27:40;100579.16;;;19.99;100.00
27294;BME280;14785;52.556;13.430;2023-07-22T10:30:12;100587.31;;;20.23;100.00
27294;BME280;14785;52.556;13.430;2023-07-22T10:32:46;100591.72;;;19.87;100.00
27294;BME280;14785;52.556;13.430;2023-07-22T10:35:21;100580.06;;;20.42;100.00
27294;BME280;14785;52.556;13.430;2023-07-22T10:37:47;100588.66;;;20.14;100.00
27294;BME280;14785;52.556;13.430;2023-07-22T10:43:05;100572.22;;;20.16;100.00
27294;BME280;14785;52.556;13.430;2023-07-22T10:45:39;100589.38;;;20.70;100.00
27294;BME280;14785;52.556;13.430;2023-07-22T10:48:10;100586.31;;;20.42;100.00
27294;BME280;14785;52.556;13.430;2023-07-22T10:50:48;100591.00;;;20.29;100.00
27294;BME280;14785;52.556;13.430;2023-07-22T10:58:26;100589.00;;;19.87;100.00
27294;BME280;14785;52.556;13.430;2023-07-22T11:00:53;100588.31;;;19.98;100.00
27294;BME280;14785;52.556;13.430;2023-07-22T11:03:18;100586.56;;;20.59;100.00
27294;BME280;14785;52.556;13.430;2023-07-22T11:05:53;100567.19;;;20.44;100.00
27294;BME280;14785;52.556;13.430;2023-07-22T11:08:38;100567.16;;;19.95;100.00
27294;BME280;14785;52.556;13.430;2023-07-22T11:11:04;100569.63;;;20.52;100.00
27294;BME280;14785;52.556;13.430;2023-07-22T11:13:36;100569.34;;;21.14;100.00
27294;BME280;14785;52.556;13.430;2023-07-22T11:16:05;100566.03;;;21.12;100.00
27294;BME280;14785;52.556;13.430;2023-07-22T11:18:41;100578.34;;;21.56;100.00
27294;BME280;14785;52.556;13.430;2023-07-22T11:21:08;100577.03;;;21.47;100.00
27294;BME280;14785;52.556;13.430;2023-07-22T11:23:34;100548.25;;;21.93;100.00
27294;BME280;14785;52.556;13.430;2023-07-22T11:26:03;100558.31;;;21.45;100.00
27294;BME280;14785;52.556;13.430;2023-07-22T11:28:28;100561.41;;;21.78;100.00
27294;BME280;14785;52.556;13.430;2023-07-22T11:30:56;100582.66;;;21.45;100.00
27294;BME280;14785;52.556;13.430;2023-07-22T11:33:24;100547.53;;;21.27;100.00
27294;BME280;14785;52.556;13.430;2023-07-22T11:35:52;100571.13;;;20.66;100.00
27294;BME280;14785;52.556;13.430;2023-07-22T11:38:17;100573.53;;;20.74;100.00
27294;BME280;14785;52.556;13.430;2023-07-22T11:40:46;100558.00;;;21.24;100.00
27294;BME280;14785;52.556;13.430;2023-07-22T11:43:12;100557.53;;;20.91;100.00
27294;BME280;14785;52.556;13.430;2023-07-22T11:45:38;100557.84;;;21.19;100.00
27294;BME280;14785;52.556;13.430;2023-07-22T11:48:09;100562.13;;;20.90;100.00
27294;BME280;14785;52.556;13.430;2023-07-22T11:50:35;100560.19;;;20.97;100.00
27294;BME280;14785;52.556;13.430;2023-07-22T11:53:02;100555.91;;;21.55;100.00
27294;BME280;14785;52.556;13.430;2023-07-22T11:55:27;100552.38;;;21.07;100.00
27294;BME280;14785;52.556;13.430;2023-07-22T11:57:56;100558.78;;;20.70;100.00
27294;BME280;14785;52.556;13.430;2023-07-22T12:00:21;100547.81;;;21.37;100.00
27294;BME280;14785;52.556;13.430;2023-07-22T12:02:47;100561.56;;;21.65;100.00
27294;BME280;14785;52.556;13.430;2023-07-22T12:05:20;100555.41;;;21.29;100.00
27294;BME280;14785;52.556;13.430;2023-07-22T12:07:46;100570.00;;;21.75;100.00
27294;BME280;14785;52.556;13.430;2023-07-22T12:10:12;100566.59;;;21.91;100.00
27294;BME280;14785;52.556;13.430;2023-07-22T12:12:45;100562.56;;;21.23;100.00
27294;BME280;14785;52.556;13.430;2023-07-22T12:15:19;100562.97;;;21.56;100.00
27294;BME280;14785;52.556;13.430;2023-07-22T12:17:51;100554.97;;;21.14;100.00
27294;BME280;14785;52.556;13.430;2023-07-22T12:20:25;100559.63;;;21.54;100.00
27294;BME280;14785;52.556;13.430;2023-07-22T12:22:51;100560.50;;;21.66;100.00
27294;BME280;14785;52.556;13.430;2023-07-22T12:25:16;100559.25;;;22.44;100.00
27294;BME280;14785;52.556;13.430;2023-07-22T12:27:43;100552.44;;;23.28;100.00
27294;BME280;14785;52.556;13.430;2023-07-22T12:30:12;100544.03;;;23.41;100.00
27294;BME280;14785;52.556;13.430;2023-07-22T12:32:46;100555.56;;;21.63;100.00
27294;BME280;14785;52.556;13.430;2023-07-22T12:35:56;100544.00;;;21.97;100.00
27294;BME280;14785;52.556;13.430;2023-07-22T12:41:12;100561.28;;;22.37;100.00
27294;BME280;14785;52.556;13.430;2023-07-22T12:43:43;100555.84;;;22.37;100.00
27294;BME280;14785;52.556;13.430;2023-07-22T12:49:46;100560.94;;;21.81;100.00